• Join FlightAware (Why Join?)
  • Login
  • US Flag 
08:08AM EDT


 

Airport Tracker/Info


-or-


 

Live Flight TrackerFlight Track Log ✈ AWE2043 ✈ 08-May-2014 ✈ KCLT - KPBI

Flight Track Log - Related Links

Times and Time Zones

All times are in EDT time to prevent confusion due to time zone crossing. See the AWE2043 flight status page for this flight to view local times or setup timezone preferences in your user account.

Time Position Orientation Groundspeed Altitude Reporting Facility
EDT Latitude Longitude Course Direction KTS MPH feet Rate Location/Type
06:18PM 35.1928 -80.9356 193° South 170 196 1,500  Level Atlanta Center
06:19PM 35.1028 -80.9239 174° South 259 298 4,400 2,160 Climbing Atlanta Center
06:20PM 35.0483 -80.9156 173° South 266 306 6,100 3,060 Climbing Atlanta Center
06:20PM 35.0294 -80.9114 170° South 285 328 7,500 3,000 Climbing Atlanta Center
06:21PM 34.7145 -80.8946 180° South  Level Estimated
06:21PM 34.9753 -80.9058 175° South 274 315 9,100  Level Atlanta Center
06:21PM 34.9458 -80.9042 177° South 280 322 10,400 1,860 Climbing Atlanta Center
06:22PM 34.5897 -80.8810 180° South  Level Estimated
06:22PM 34.8978 -80.9036 179° South 315 362 11,000  Level Atlanta Center
06:23PM 34.4649 -80.8676 193° South  Level Estimated
06:24PM 34.6575 -80.9111 181° South 362 417 16,000  Level Jacksonville Center
06:25PM 34.5450 -80.9189 183° South 395 455 17,900 1,980 Climbing Jacksonville Center
06:26PM 34.4283 -80.9242 182° South 415 478 20,000 1,860 Climbing Jacksonville Center
06:27PM 34.3072 -80.9342 184° South 426 490 21,700 1,440 Climbing Jacksonville Center
06:28PM 34.1886 -80.9394 182° South 426 490 22,900 1,260 Climbing Jacksonville Center
06:29PM 34.0592 -80.9475 183° South 451 519 24,300 1,200 Climbing Jacksonville Center
06:30PM 33.9258 -80.9553 183° South 468 539 25,400 1,200 Climbing Jacksonville Center
06:31PM 33.7925 -80.9633 183° South 482 555 26,800 1,800 Climbing Jacksonville Center
06:32PM 33.6592 -80.9736 184° South 488 562 29,100 1,620 Climbing Jacksonville Center
06:33PM 33.5297 -80.9839 184° South 478 550 30,100 1,020 Climbing Jacksonville Center
06:34PM 33.3964 -80.9894 182° South 473 544 31,200 1,020 Climbing Jacksonville Center
06:35PM 33.2650 -80.9997 184° South 479 551 32,200 900 Climbing Jacksonville Center
06:36PM 33.1317 -81.0075 183° South 479 551 33,100 780 Climbing Jacksonville Center
06:37PM 32.9961 -81.0153 183° South 479 551 33,800 360 Climbing Jacksonville Center
06:38PM 32.8625 -81.0231 183° South 484 557 33,900 60 Climbing Jacksonville Center
06:39PM 32.7269 -81.0306 183° South 484 557 34,000  Climbing Jacksonville Center
06:40PM 32.5767 -81.0411 183° South 489 563 34,000  Level Jacksonville Center
06:41PM 32.4411 -81.0464 182° South 483 556 34,000  Level Jacksonville Center
06:42PM 32.3119 -81.0539 183° South 478 550 34,000  Level Jacksonville Center
06:43PM 32.1761 -81.0592 182° South 478 550 34,000  Level Jacksonville Center
06:44PM 32.0344 -81.0717 184° South 506 582 34,000  Level Jacksonville Center
06:45PM 31.8989 -81.0792 183° South 490 564 34,000  Level Jacksonville Center
06:46PM 31.7675 -81.0892 184° South 485 558 34,000  Level Jacksonville Center
06:47PM 31.6278 -81.0969 183° South 485 558 34,000  Level Jacksonville Center
06:48PM 31.4964 -81.1042 183° South 490 564 34,000  Level Jacksonville Center
06:49PM 31.3753 -81.1114 183° South 490 564 34,000 -60 Level Jacksonville Center
06:50PM 31.2375 -81.1214 184° South 496 571 33,900  Descending Jacksonville Center
06:51PM 31.1019 -81.1286 183° South 496 571 34,000  Climbing Jacksonville Center
06:52PM 30.9642 -81.1361 183° South 496 571 34,000  Level Jacksonville Center
06:53PM 30.8161 -81.1436 182° South 496 571 34,000  Level Jacksonville Center
06:54PM 30.6783 -81.1511 183° South 496 571 34,000  Level Jacksonville Center
06:55PM 30.5403 -81.1247 171° South 496 571 34,000  Level Jacksonville Center
06:56PM 30.4042 -81.0911 168° South 501 577 34,000  Level Jacksonville Center
06:57PM 30.2617 -81.0553 168° South 511 588 34,000  Level Jacksonville Center
06:58PM 30.1233 -81.0219 168° South 511 588 34,000  Level Jacksonville Center
06:59PM 29.9850 -80.9886 168° South 506 582 34,000  Level Jacksonville Center
07:00PM 29.8467 -80.9553 168° South 506 582 34,000  Level Jacksonville Center
07:01PM 29.6792 -80.9156 168° South 506 582 34,000  Level Jacksonville Center
07:02PM 29.5431 -80.8850 169° South 506 582 34,000  Level Jacksonville Center
07:04PM 29.3114 -80.8256 167° South 507 583 34,000  Level Miami Center
07:05PM 29.1747 -80.7894 167° South 507 583 34,000  Level Miami Center
07:06PM 29.0172 -80.7094 156° South 513 590 34,000  Level Miami Center
07:07PM 28.8803 -80.6422 157° South 512 589 34,000  Level Miami Center
07:08PM 28.7444 -80.5753 157° South 511 588 34,000  Level Miami Center
07:09PM 28.6183 -80.5147 157° South 509 586 34,000 -900 Level Miami Center
07:10PM 28.4842 -80.4489 157° South 506 582 32,200 -2,760 Descending Miami Center
07:12PM 28.3428 -80.3814 157° South 510 587 28,400 -3,720 Descending Miami Center
07:13PM 28.2019 -80.3128 157° South 523 602 24,600 -2,280 Descending Miami Center
07:14PM 28.0783 -80.2303 150° Southeast 493 567 23,700 -1,500 Descending Miami Center
07:15PM 27.9633 -80.1883 162° South 462 532 21,500 -2,340 Descending Miami Center
07:16PM 27.8361 -80.1783 176° South 445 512 18,900 -2,400 Descending Miami Center
07:17PM 27.7125 -80.1683 176° South 425 489 16,600 -2,400 Descending Miami Center
07:18PM 27.5950 -80.1589 176° South 405 466 14,100 -2,280 Descending Miami Center
07:19PM 27.4964 -80.1514 176° South 368 423 11,900 -1,800 Descending Miami Center
07:20PM 27.3994 -80.1444 176° South 337 388 10,500 -960 Descending Miami Center
07:21PM 27.3086 -80.1369 176° South 309 356 10,000 -660 Descending Miami Center
07:22PM 27.2289 -80.1253 173° South 280 322 9,200 -1,500 Descending Miami Center
07:23PM 27.1497 -80.1378 188° South 274 315 7,000 -2,040 Descending Miami Center
07:24PM 27.0792 -80.1500 189° South 269 310 5,100 -1,500 Descending Miami Center
07:25PM 27.0044 -80.1631 189° South 264 304 4,000 -540 Descending Miami Center
07:26PM 26.9425 -80.1742 189° South 202 232 4,000  Level Miami Center
07:27PM 26.8900 -80.1828 188° South 185 213 4,000 -360 Level Miami Center
07:28PM 26.8375 -80.1931 190° South 184 212 3,300 -840 Descending Miami Center
07:29PM 26.7875 -80.2008 188° South 185 213 2,400 -900 Descending Miami Center
07:30PM 26.7353 -80.2261 203° Southwest 188 216 1,500 -480 Descending Miami Center
07:31PM 26.6883 -80.2181 171° South 185 213 1,500 -300 Level Miami Center
07:32PM 26.6856 -80.1647 93° East 168 193 1,000 -540 Descending Miami Center
07:33PM 26.6847 -80.1222 91° East 153 176 500 -540 Descending Miami Center